sensor_id;sensor_type;location;lat;lon;timestamp;P1;durP1;ratioP1;P2;durP2;ratioP2
46348;SDS011;32057;47.830;19.046;2022-07-24T00:00:03;4.85;;;4.10;;
46348;SDS011;32057;47.830;19.046;2022-07-24T00:02:30;4.88;;;3.92;;
46348;SDS011;32057;47.830;19.046;2022-07-24T00:04:56;4.53;;;4.13;;
46348;SDS011;32057;47.830;19.046;2022-07-24T00:07:22;4.18;;;3.72;;
46348;SDS011;32057;47.830;19.046;2022-07-24T00:09:47;5.03;;;3.88;;
46348;SDS011;32057;47.830;19.046;2022-07-24T00:12:13;3.50;;;3.03;;
46348;SDS011;32057;47.830;19.046;2022-07-24T00:14:38;4.85;;;3.38;;
46348;SDS011;32057;47.830;19.046;2022-07-24T00:17:04;3.42;;;3.10;;
46348;SDS011;32057;47.830;19.046;2022-07-24T00:19:29;4.03;;;3.22;;
46348;SDS011;32057;47.830;19.046;2022-07-24T00:21:55;4.45;;;3.15;;
46348;SDS011;32057;47.830;19.046;2022-07-24T00:24:22;3.67;;;3.28;;
46348;SDS011;32057;47.830;19.046;2022-07-24T00:26:47;3.70;;;3.40;;
46348;SDS011;32057;47.830;19.046;2022-07-24T00:29:13;4.78;;;4.00;;
46348;SDS011;32057;47.830;19.046;2022-07-24T00:31:38;9.27;;;3.88;;
46348;SDS011;32057;47.830;19.046;2022-07-24T00:34:04;4.50;;;4.07;;
46348;SDS011;32057;47.830;19.046;2022-07-24T00:36:29;4.63;;;4.03;;
46348;SDS011;32057;47.830;19.046;2022-07-24T00:38:54;3.53;;;3.00;;
46348;SDS011;32057;47.830;19.046;2022-07-24T00:41:20;4.53;;;3.72;;
46348;SDS011;32057;47.830;19.046;2022-07-24T00:43:59;3.45;;;2.95;;
46348;SDS011;32057;47.830;19.046;2022-07-24T00:46:27;3.83;;;3.53;;
46348;SDS011;32057;47.830;19.046;2022-07-24T00:48:53;4.18;;;3.00;;
46348;SDS011;32057;47.830;19.046;2022-07-24T00:51:18;3.67;;;3.20;;
46348;SDS011;32057;47.830;19.046;2022-07-24T00:53:43;3.88;;;3.40;;
46348;SDS011;32057;47.830;19.046;2022-07-24T00:56:09;5.15;;;4.65;;
46348;SDS011;32057;47.830;19.046;2022-07-24T00:58:34;5.38;;;4.30;;
46348;SDS011;32057;47.830;19.046;2022-07-24T01:01:00;5.50;;;3.60;;
46348;SDS011;32057;47.830;19.046;2022-07-24T01:03:25;4.60;;;3.50;;
46348;SDS011;32057;47.830;19.046;2022-07-24T01:05:51;3.83;;;3.25;;
46348;SDS011;32057;47.830;19.046;2022-07-24T01:08:16;4.10;;;3.28;;
46348;SDS011;32057;47.830;19.046;2022-07-24T01:10:42;5.40;;;4.22;;
46348;SDS011;32057;47.830;19.046;2022-07-24T01:13:08;3.88;;;3.50;;
46348;SDS011;32057;47.830;19.046;2022-07-24T01:15:34;4.18;;;3.78;;
46348;SDS011;32057;47.830;19.046;2022-07-24T01:17:59;4.13;;;3.72;;
46348;SDS011;32057;47.830;19.046;2022-07-24T01:20:26;3.95;;;3.65;;
46348;SDS011;32057;47.830;19.046;2022-07-24T01:22:52;4.53;;;4.00;;
46348;SDS011;32057;47.830;19.046;2022-07-24T01:25:17;11.95;;;3.97;;
46348;SDS011;32057;47.830;19.046;2022-07-24T01:27:43;4.18;;;3.45;;
46348;SDS011;32057;47.830;19.046;2022-07-24T01:30:08;4.15;;;3.38;;
46348;SDS011;32057;47.830;19.046;2022-07-24T01:32:34;4.25;;;3.13;;
46348;SDS011;32057;47.830;19.046;2022-07-24T01:34:59;4.10;;;3.42;;
46348;SDS011;32057;47.830;19.046;2022-07-24T01:37:25;3.70;;;3.35;;
46348;SDS011;32057;47.830;19.046;2022-07-24T01:39:50;5.43;;;3.72;;
46348;SDS011;32057;47.830;19.046;2022-07-24T01:42:16;3.58;;;2.90;;
46348;SDS011;32057;47.830;19.046;2022-07-24T01:44:44;3.83;;;2.90;;
46348;SDS011;32057;47.830;19.046;2022-07-24T01:47:09;3.13;;;2.83;;
46348;SDS011;32057;47.830;19.046;2022-07-24T01:49:35;3.78;;;3.47;;
46348;SDS011;32057;47.830;19.046;2022-07-24T01:52:01;4.70;;;4.18;;
46348;SDS011;32057;47.830;19.046;2022-07-24T01:54:26;3.75;;;3.40;;
46348;SDS011;32057;47.830;19.046;2022-07-24T01:56:52;3.67;;;2.95;;
46348;SDS011;32057;47.830;19.046;2022-07-24T01:59:17;4.40;;;3.38;;
46348;SDS011;32057;47.830;19.046;2022-07-24T02:01:43;3.78;;;3.20;;
46348;SDS011;32057;47.830;19.046;2022-07-24T02:04:08;5.93;;;3.88;;
46348;SDS011;32057;47.830;19.046;2022-07-24T02:06:34;4.00;;;3.60;;
46348;SDS011;32057;47.830;19.046;2022-07-24T02:08:59;3.28;;;2.70;;
46348;SDS011;32057;47.830;19.046;2022-07-24T02:11:25;5.75;;;3.67;;
46348;SDS011;32057;47.830;19.046;2022-07-24T02:13:50;3.17;;;2.88;;
46348;SDS011;32057;47.830;19.046;2022-07-24T02:16:17;3.95;;;3.42;;
46348;SDS011;32057;47.830;19.046;2022-07-24T02:18:43;3.53;;;3.22;;
46348;SDS011;32057;47.830;19.046;2022-07-24T02:21:08;3.55;;;3.25;;
46348;SDS011;32057;47.830;19.046;2022-07-24T02:23:33;3.50;;;3.03;;
46348;SDS011;32057;47.830;19.046;2022-07-24T02:25:59;3.95;;;3.30;;
46348;SDS011;32057;47.830;19.046;2022-07-24T02:28:24;3.92;;;3.47;;
46348;SDS011;32057;47.830;19.046;2022-07-24T02:30:50;4.28;;;3.17;;
46348;SDS011;32057;47.830;19.046;2022-07-24T02:33:16;3.60;;;3.13;;
46348;SDS011;32057;47.830;19.046;2022-07-24T02:35:41;4.25;;;3.33;;
46348;SDS011;32057;47.830;19.046;2022-07-24T02:38:07;6.35;;;3.28;;
46348;SDS011;32057;47.830;19.046;2022-07-24T02:40:33;5.90;;;2.97;;
46348;SDS011;32057;47.830;19.046;2022-07-24T02:42:59;3.25;;;2.88;;
46348;SDS011;32057;47.830;19.046;2022-07-24T02:45:24;5.57;;;2.90;;
46348;SDS011;32057;47.830;19.046;2022-07-24T02:47:54;3.85;;;3.00;;
46348;SDS011;32057;47.830;19.046;2022-07-24T02:50:22;3.78;;;3.47;;
46348;SDS011;32057;47.830;19.046;2022-07-24T02:52:50;3.33;;;2.67;;
46348;SDS011;32057;47.830;19.046;2022-07-24T02:55:16;3.45;;;2.95;;
46348;SDS011;32057;47.830;19.046;2022-07-24T02:57:42;3.65;;;2.90;;
46348;SDS011;32057;47.830;19.046;2022-07-24T03:00:09;3.65;;;3.35;;
46348;SDS011;32057;47.830;19.046;2022-07-24T03:02:36;3.35;;;3.05;;
46348;SDS011;32057;47.830;19.046;2022-07-24T03:05:03;2.97;;;2.63;;
46348;SDS011;32057;47.830;19.046;2022-07-24T03:07:29;3.28;;;2.97;;
46348;SDS011;32057;47.830;19.046;2022-07-24T03:09:55;4.22;;;2.97;;
46348;SDS011;32057;47.830;19.046;2022-07-24T03:12:20;4.75;;;2.97;;
46348;SDS011;32057;47.830;19.046;2022-07-24T03:14:46;4.65;;;3.22;;
46348;SDS011;32057;47.830;19.046;2022-07-24T03:17:11;3.30;;;2.70;;
46348;SDS011;32057;47.830;19.046;2022-07-24T03:19:37;2.67;;;2.35;;
46348;SDS011;32057;47.830;19.046;2022-07-24T03:22:02;3.83;;;3.53;;
46348;SDS011;32057;47.830;19.046;2022-07-24T03:24:28;5.32;;;3.60;;
46348;SDS011;32057;47.830;19.046;2022-07-24T03:26:53;4.35;;;3.53;;
46348;SDS011;32057;47.830;19.046;2022-07-24T03:29:19;3.30;;;2.72;;
46348;SDS011;32057;47.830;19.046;2022-07-24T03:31:45;3.53;;;2.92;;
46348;SDS011;32057;47.830;19.046;2022-07-24T03:34:11;3.78;;;2.42;;
46348;SDS011;32057;47.830;19.046;2022-07-24T03:36:36;3.03;;;2.60;;
46348;SDS011;32057;47.830;19.046;2022-07-24T03:39:02;2.88;;;2.60;;
46348;SDS011;32057;47.830;19.046;2022-07-24T03:41:28;3.28;;;2.85;;
46348;SDS011;32057;47.830;19.046;2022-07-24T03:43:54;3.35;;;2.60;;
46348;SDS011;32057;47.830;19.046;2022-07-24T03:46:19;2.53;;;2.33;;
46348;SDS011;32057;47.830;19.046;2022-07-24T03:48:45;3.97;;;2.80;;
46348;SDS011;32057;47.830;19.046;2022-07-24T03:51:10;5.68;;;2.80;;
46348;SDS011;32057;47.830;19.046;2022-07-24T03:53:36;4.47;;;3.13;;
46348;SDS011;32057;47.830;19.046;2022-07-24T03:56:05;3.33;;;2.67;;
46348;SDS011;32057;47.830;19.046;2022-07-24T03:58:31;4.65;;;3.50;;
46348;SDS011;32057;47.830;19.046;2022-07-24T04:00:57;3.83;;;3.15;;
46348;SDS011;32057;47.830;19.046;2022-07-24T04:03:23;3.45;;;3.15;;
46348;SDS011;32057;47.830;19.046;2022-07-24T04:05:48;4.00;;;2.92;;
46348;SDS011;32057;47.830;19.046;2022-07-24T04:08:13;3.55;;;2.58;;
46348;SDS011;32057;47.830;19.046;2022-07-24T04:10:39;6.50;;;3.08;;
46348;SDS011;32057;47.830;19.046;2022-07-24T04:13:04;3.10;;;2.80;;
46348;SDS011;32057;47.830;19.046;2022-07-24T04:15:30;3.67;;;3.03;;
46348;SDS011;32057;47.830;19.046;2022-07-24T04:17:55;3.20;;;2.70;;
46348;SDS011;32057;47.830;19.046;2022-07-24T04:20:20;3.03;;;2.45;;
46348;SDS011;32057;47.830;19.046;2022-07-24T04:22:47;3.20;;;2.90;;
46348;SDS011;32057;47.830;19.046;2022-07-24T04:25:12;3.10;;;2.80;;
46348;SDS011;32057;47.830;19.046;2022-07-24T04:27:38;2.88;;;2.67;;
46348;SDS011;32057;47.830;19.046;2022-07-24T04:30:04;3.10;;;2.53;;
46348;SDS011;32057;47.830;19.046;2022-07-24T04:32:30;2.90;;;2.70;;
46348;SDS011;32057;47.830;19.046;2022-07-24T04:34:56;3.05;;;2.75;;
46348;SDS011;32057;47.830;19.046;2022-07-24T04:37:21;2.58;;;2.35;;
46348;SDS011;32057;47.830;19.046;2022-07-24T04:39:47;3.22;;;2.85;;
46348;SDS011;32057;47.830;19.046;2022-07-24T04:42:13;4.25;;;2.47;;
46348;SDS011;32057;47.830;19.046;2022-07-24T04:44:39;2.72;;;2.50;;
46348;SDS011;32057;47.830;19.046;2022-07-24T04:47:05;8.80;;;2.80;;
46348;SDS011;32057;47.830;19.046;2022-07-24T04:49:30;2.85;;;2.55;;
46348;SDS011;32057;47.830;19.046;2022-07-24T04:51:56;3.28;;;2.97;;
46348;SDS011;32057;47.830;19.046;2022-07-24T04:54:21;2.42;;;2.22;;
46348;SDS011;32057;47.830;19.046;2022-07-24T04:56:46;3.13;;;2.30;;
46348;SDS011;32057;47.830;19.046;2022-07-24T04:59:12;4.30;;;2.97;;
46348;SDS011;32057;47.830;19.046;2022-07-24T05:01:37;5.38;;;3.30;;
46348;SDS011;32057;47.830;19.046;2022-07-24T05:04:03;2.72;;;2.50;;
46348;SDS011;32057;47.830;19.046;2022-07-24T05:06:29;3.33;;;3.03;;
46348;SDS011;32057;47.830;19.046;2022-07-24T05:08:54;6.35;;;3.15;;
46348;SDS011;32057;47.830;19.046;2022-07-24T05:11:20;2.92;;;2.70;;
46348;SDS011;32057;47.830;19.046;2022-07-24T05:13:45;2.47;;;2.28;;
46348;SDS011;32057;47.830;19.046;2022-07-24T05:16:11;3.00;;;2.70;;
46348;SDS011;32057;47.830;19.046;2022-07-24T05:18:36;3.53;;;3.22;;
46348;SDS011;32057;47.830;19.046;2022-07-24T05:21:02;2.72;;;2.50;;
46348;SDS011;32057;47.830;19.046;2022-07-24T05:23:27;6.72;;;2.63;;
46348;SDS011;32057;47.830;19.046;2022-07-24T05:25:53;2.55;;;2.35;;
46348;SDS011;32057;47.830;19.046;2022-07-24T05:28:18;3.88;;;2.88;;
46348;SDS011;32057;47.830;19.046;2022-07-24T05:30:44;4.35;;;3.65;;
46348;SDS011;32057;47.830;19.046;2022-07-24T05:33:10;3.60;;;2.55;;
46348;SDS011;32057;47.830;19.046;2022-07-24T05:35:35;4.13;;;3.22;;
46348;SDS011;32057;47.830;19.046;2022-07-24T05:38:00;2.70;;;2.50;;
46348;SDS011;32057;47.830;19.046;2022-07-24T05:40:26;3.30;;;3.00;;
46348;SDS011;32057;47.830;19.046;2022-07-24T05:42:51;3.03;;;2.80;;
46348;SDS011;32057;47.830;19.046;2022-07-24T05:45:17;3.35;;;2.67;;
46348;SDS011;32057;47.830;19.046;2022-07-24T05:47:42;3.13;;;2.78;;
46348;SDS011;32057;47.830;19.046;2022-07-24T05:50:08;5.82;;;3.95;;
46348;SDS011;32057;47.830;19.046;2022-07-24T05:52:35;4.57;;;2.80;;
46348;SDS011;32057;47.830;19.046;2022-07-24T05:55:01;2.63;;;2.42;;
46348;SDS011;32057;47.830;19.046;2022-07-24T05:57:27;3.97;;;3.50;;
46348;SDS011;32057;47.830;19.046;2022-07-24T05:59:53;4.53;;;3.38;;
46348;SDS011;32057;47.830;19.046;2022-07-24T06:02:18;4.07;;;2.88;;
46348;SDS011;32057;47.830;19.046;2022-07-24T06:04:44;3.47;;;2.88;;
46348;SDS011;32057;47.830;19.046;2022-07-24T06:07:09;4.05;;;2.80;;
46348;SDS011;32057;47.830;19.046;2022-07-24T06:09:35;3.45;;;3.15;;
46348;SDS011;32057;47.830;19.046;2022-07-24T06:12:02;3.38;;;3.08;;
46348;SDS011;32057;47.830;19.046;2022-07-24T06:14:28;3.42;;;3.13;;
46348;SDS011;32057;47.830;19.046;2022-07-24T06:16:53;3.47;;;3.08;;
46348;SDS011;32057;47.830;19.046;2022-07-24T06:19:19;6.18;;;3.50;;
46348;SDS011;32057;47.830;19.046;2022-07-24T06:21:44;3.85;;;3.28;;
46348;SDS011;32057;47.830;19.046;2022-07-24T06:24:10;4.40;;;3.55;;
46348;SDS011;32057;47.830;19.046;2022-07-24T06:26:35;4.28;;;3.60;;
46348;SDS011;32057;47.830;19.046;2022-07-24T06:29:00;3.90;;;3.35;;
46348;SDS011;32057;47.830;19.046;2022-07-24T06:31:26;4.13;;;3.45;;
46348;SDS011;32057;47.830;19.046;2022-07-24T06:33:51;4.22;;;3.80;;
46348;SDS011;32057;47.830;19.046;2022-07-24T06:36:17;4.82;;;4.35;;
46348;SDS011;32057;47.830;19.046;2022-07-24T06:38:42;4.03;;;3.63;;
46348;SDS011;32057;47.830;19.046;2022-07-24T06:41:08;3.67;;;3.25;;
46348;SDS011;32057;47.830;19.046;2022-07-24T06:43:33;4.55;;;3.60;;
46348;SDS011;32057;47.830;19.046;2022-07-24T06:45:59;4.03;;;3.67;;
46348;SDS011;32057;47.830;19.046;2022-07-24T06:48:24;4.20;;;3.78;;
46348;SDS011;32057;47.830;19.046;2022-07-24T06:50:49;4.35;;;3.75;;
46348;SDS011;32057;47.830;19.046;2022-07-24T06:53:15;3.95;;;3.10;;
46348;SDS011;32057;47.830;19.046;2022-07-24T06:55:40;4.82;;;3.63;;
46348;SDS011;32057;47.830;19.046;2022-07-24T06:58:06;4.05;;;3.60;;
46348;SDS011;32057;47.830;19.046;2022-07-24T07:00:31;3.75;;;3.35;;
46348;SDS011;32057;47.830;19.046;2022-07-24T07:02:56;11.70;;;3.78;;
46348;SDS011;32057;47.830;19.046;2022-07-24T07:05:22;4.32;;;3.92;;
46348;SDS011;32057;47.830;19.046;2022-07-24T07:07:49;3.33;;;3.03;;
46348;SDS011;32057;47.830;19.046;2022-07-24T07:10:14;2.92;;;2.70;;
46348;SDS011;32057;47.830;19.046;2022-07-24T07:12:40;4.32;;;3.22;;
46348;SDS011;32057;47.830;19.046;2022-07-24T07:15:06;2.55;;;2.35;;
46348;SDS011;32057;47.830;19.046;2022-07-24T07:17:32;3.97;;;3.35;;
46348;SDS011;32057;47.830;19.046;2022-07-24T07:19:57;3.40;;;2.85;;
46348;SDS011;32057;47.830;19.046;2022-07-24T07:22:23;3.60;;;3.22;;
46348;SDS011;32057;47.830;19.046;2022-07-24T07:24:48;4.35;;;2.60;;
46348;SDS011;32057;47.830;19.046;2022-07-24T07:27:14;4.15;;;2.95;;
46348;SDS011;32057;47.830;19.046;2022-07-24T07:29:39;4.13;;;2.67;;
46348;SDS011;32057;47.830;19.046;2022-07-24T07:32:04;2.60;;;2.40;;
46348;SDS011;32057;47.830;19.046;2022-07-24T07:34:30;3.55;;;3.05;;
46348;SDS011;32057;47.830;19.046;2022-07-24T07:36:55;3.30;;;2.38;;
46348;SDS011;32057;47.830;19.046;2022-07-24T07:39:21;4.25;;;2.50;;
46348;SDS011;32057;47.830;19.046;2022-07-24T07:41:46;3.22;;;2.92;;
46348;SDS011;32057;47.830;19.046;2022-07-24T07:44:12;2.13;;;2.03;;
46348;SDS011;32057;47.830;19.046;2022-07-24T07:46:37;2.50;;;2.30;;
46348;SDS011;32057;47.830;19.046;2022-07-24T07:49:03;2.67;;;2.47;;
46348;SDS011;32057;47.830;19.046;2022-07-24T07:51:29;2.50;;;2.30;;
46348;SDS011;32057;47.830;19.046;2022-07-24T07:53:54;2.30;;;2.10;;
46348;SDS011;32057;47.830;19.046;2022-07-24T07:56:20;2.50;;;2.30;;
46348;SDS011;32057;47.830;19.046;2022-07-24T07:58:45;2.72;;;2.45;;
46348;SDS011;32057;47.830;19.046;2022-07-24T08:01:11;2.75;;;2.47;;
46348;SDS011;32057;47.830;19.046;2022-07-24T08:03:37;3.65;;;2.47;;
46348;SDS011;32057;47.830;19.046;2022-07-24T08:06:02;2.25;;;2.05;;
46348;SDS011;32057;47.830;19.046;2022-07-24T08:08:29;3.03;;;2.35;;
46348;SDS011;32057;47.830;19.046;2022-07-24T08:10:54;2.08;;;1.92;;
46348;SDS011;32057;47.830;19.046;2022-07-24T08:13:20;2.05;;;1.92;;
46348;SDS011;32057;47.830;19.046;2022-07-24T08:15:46;2.40;;;2.22;;
46348;SDS011;32057;47.830;19.046;2022-07-24T08:18:11;1.95;;;1.85;;
46348;SDS011;32057;47.830;19.046;2022-07-24T08:20:37;2.63;;;2.03;;
46348;SDS011;32057;47.830;19.046;2022-07-24T08:23:02;2.25;;;2.05;;
46348;SDS011;32057;47.830;19.046;2022-07-24T08:25:28;2.22;;;2.03;;
46348;SDS011;32057;47.830;19.046;2022-07-24T08:27:53;2.78;;;2.45;;
46348;SDS011;32057;47.830;19.046;2022-07-24T08:30:19;3.33;;;2.58;;
46348;SDS011;32057;47.830;19.046;2022-07-24T08:32:46;2.60;;;2.40;;
46348;SDS011;32057;47.830;19.046;2022-07-24T08:35:12;12.90;;;3.60;;
46348;SDS011;32057;47.830;19.046;2022-07-24T08:37:40;2.28;;;2.08;;
46348;SDS011;32057;47.830;19.046;2022-07-24T08:40:06;2.28;;;2.08;;
46348;SDS011;32057;47.830;19.046;2022-07-24T08:42:32;3.88;;;3.47;;
46348;SDS011;32057;47.830;19.046;2022-07-24T08:44:59;2.53;;;2.30;;
46348;SDS011;32057;47.830;19.046;2022-07-24T08:47:27;3.13;;;2.75;;
46348;SDS011;32057;47.830;19.046;2022-07-24T08:49:55;12.20;;;3.30;;
46348;SDS011;32057;47.830;19.046;2022-07-24T08:52:22;3.45;;;2.45;;
46348;SDS011;32057;47.830;19.046;2022-07-24T08:54:48;2.38;;;2.17;;
46348;SDS011;32057;47.830;19.046;2022-07-24T08:57:13;3.30;;;3.00;;
46348;SDS011;32057;47.830;19.046;2022-07-24T08:59:39;2.72;;;2.53;;
46348;SDS011;32057;47.830;19.046;2022-07-24T09:02:04;3.13;;;2.90;;
46348;SDS011;32057;47.830;19.046;2022-07-24T09:04:32;3.33;;;2.97;;
46348;SDS011;32057;47.830;19.046;2022-07-24T09:06:59;3.03;;;2.72;;
46348;SDS011;32057;47.830;19.046;2022-07-24T09:09:25;3.10;;;2.58;;
46348;SDS011;32057;47.830;19.046;2022-07-24T09:12:14;3.03;;;2.72;;
46348;SDS011;32057;47.830;19.046;2022-07-24T09:14:40;3.25;;;2.95;;
46348;SDS011;32057;47.830;19.046;2022-07-24T09:17:09;3.30;;;3.00;;
46348;SDS011;32057;47.830;19.046;2022-07-24T09:25:15;2.30;;;2.00;;
46348;SDS011;32057;47.830;19.046;2022-07-24T09:30:23;3.60;;;2.72;;
46348;SDS011;32057;47.830;19.046;2022-07-24T09:32:59;3.03;;;2.83;;
46348;SDS011;32057;47.830;19.046;2022-07-24T09:35:33;2.95;;;2.22;;
46348;SDS011;32057;47.830;19.046;2022-07-24T09:38:14;2.88;;;2.67;;
46348;SDS011;32057;47.830;19.046;2022-07-24T09:40:54;2.38;;;2.17;;
46348;SDS011;32057;47.830;19.046;2022-07-24T09:43:23;5.25;;;2.50;;
46348;SDS011;32057;47.830;19.046;2022-07-24T09:45:52;2.45;;;2.25;;
46348;SDS011;32057;47.830;19.046;2022-07-24T09:50:58;2.65;;;2.42;;
46348;SDS011;32057;47.830;19.046;2022-07-24T09:53:26;2.53;;;2.33;;
46348;SDS011;32057;47.830;19.046;2022-07-24T09:56:01;3.83;;;2.38;;
46348;SDS011;32057;47.830;19.046;2022-07-24T09:58:32;1.77;;;1.63;;
46348;SDS011;32057;47.830;19.046;2022-07-24T10:01:03;1.67;;;1.58;;
46348;SDS011;32057;47.830;19.046;2022-07-24T10:03:30;8.07;;;2.50;;
46348;SDS011;32057;47.830;19.046;2022-07-24T10:05:59;1.88;;;1.77;;
46348;SDS011;32057;47.830;19.046;2022-07-24T10:08:26;2.45;;;1.88;;
46348;SDS011;32057;47.830;19.046;2022-07-24T10:10:53;2.58;;;2.10;;
46348;SDS011;32057;47.830;19.046;2022-07-24T10:13:19;4.82;;;2.70;;
46348;SDS011;32057;47.830;19.046;2022-07-24T10:16:04;3.72;;;2.28;;
46348;SDS011;32057;47.830;19.046;2022-07-24T10:21:35;3.55;;;2.33;;
46348;SDS011;32057;47.830;19.046;2022-07-24T10:29:14;2.20;;;2.00;;
46348;SDS011;32057;47.830;19.046;2022-07-24T10:31:53;4.18;;;3.58;;
46348;SDS011;32057;47.830;19.046;2022-07-24T10:53:26;2.05;;;1.90;;
46348;SDS011;32057;47.830;19.046;2022-07-24T10:56:25;6.95;;;3.03;;
46348;SDS011;32057;47.830;19.046;2022-07-24T10:59:09;1.42;;;1.20;;
46348;SDS011;32057;47.830;19.046;2022-07-24T11:01:43;1.30;;;1.20;;
46348;SDS011;32057;47.830;19.046;2022-07-24T11:06:44;1.50;;;1.40;;
46348;SDS011;32057;47.830;19.046;2022-07-24T11:09:10;1.80;;;1.70;;
46348;SDS011;32057;47.830;19.046;2022-07-24T11:11:40;2.03;;;1.73;;
46348;SDS011;32057;47.830;19.046;2022-07-24T11:14:46;1.88;;;1.70;;
46348;SDS011;32057;47.830;19.046;2022-07-24T11:20:00;1.80;;;1.70;;
46348;SDS011;32057;47.830;19.046;2022-07-24T11:22:36;1.60;;;1.50;;
46348;SDS011;32057;47.830;19.046;2022-07-24T11:25:15;1.48;;;1.38;;
46348;SDS011;32057;47.830;19.046;2022-07-24T11:27:44;1.88;;;1.77;;
46348;SDS011;32057;47.830;19.046;2022-07-24T11:30:15;6.13;;;1.70;;
46348;SDS011;32057;47.830;19.046;2022-07-24T11:32:42;1.70;;;1.60;;
46348;SDS011;32057;47.830;19.046;2022-07-24T11:35:08;1.50;;;1.40;;
46348;SDS011;32057;47.830;19.046;2022-07-24T11:37:34;1.95;;;1.80;;
46348;SDS011;32057;47.830;19.046;2022-07-24T11:40:07;2.03;;;1.80;;
46348;SDS011;32057;47.830;19.046;2022-07-24T11:42:34;1.60;;;1.50;;
46348;SDS011;32057;47.830;19.046;2022-07-24T11:45:00;2.35;;;2.15;;
46348;SDS011;32057;47.830;19.046;2022-07-24T11:47:26;1.52;;;1.42;;
46348;SDS011;32057;47.830;19.046;2022-07-24T11:50:03;3.53;;;1.88;;
46348;SDS011;32057;47.830;19.046;2022-07-24T11:52:35;2.00;;;1.80;;
46348;SDS011;32057;47.830;19.046;2022-07-24T11:57:39;2.13;;;1.92;;
46348;SDS011;32057;47.830;19.046;2022-07-24T12:00:07;1.50;;;1.40;;
46348;SDS011;32057;47.830;19.046;2022-07-24T12:02:36;1.63;;;1.52;;
46348;SDS011;32057;47.830;19.046;2022-07-24T12:05:02;1.50;;;1.40;;
46348;SDS011;32057;47.830;19.046;2022-07-24T12:07:28;1.73;;;1.60;;
46348;SDS011;32057;47.830;19.046;2022-07-24T12:09:58;2.83;;;1.75;;
46348;SDS011;32057;47.830;19.046;2022-07-24T12:12:29;2.08;;;1.83;;
46348;SDS011;32057;47.830;19.046;2022-07-24T12:17:26;1.92;;;1.80;;
46348;SDS011;32057;47.830;19.046;2022-07-24T12:19:53;1.50;;;1.40;;
46348;SDS011;32057;47.830;19.046;2022-07-24T12:22:21;2.20;;;2.03;;
46348;SDS011;32057;47.830;19.046;2022-07-24T12:24:48;1.75;;;1.65;;
46348;SDS011;32057;47.830;19.046;2022-07-24T12:27:31;2.20;;;2.00;;
46348;SDS011;32057;47.830;19.046;2022-07-24T12:30:01;2.03;;;1.80;;
46348;SDS011;32057;47.830;19.046;2022-07-24T12:32:29;1.77;;;1.67;;
46348;SDS011;32057;47.830;19.046;2022-07-24T12:34:54;1.80;;;1.55;;
46348;SDS011;32057;47.830;19.046;2022-07-24T12:37:20;1.83;;;1.73;;
46348;SDS011;32057;47.830;19.046;2022-07-24T12:39:50;2.13;;;1.92;;
46348;SDS011;32057;47.830;19.046;2022-07-24T12:42:18;1.92;;;1.83;;
46348;SDS011;32057;47.830;19.046;2022-07-24T12:44:54;1.55;;;1.45;;
46348;SDS011;32057;47.830;19.046;2022-07-24T12:47:30;2.22;;;1.52;;
46348;SDS011;32057;47.830;19.046;2022-07-24T12:49:55;1.85;;;1.75;;
46348;SDS011;32057;47.830;19.046;2022-07-24T12:52:22;2.03;;;1.88;;
46348;SDS011;32057;47.830;19.046;2022-07-24T12:54:49;2.03;;;1.52;;
46348;SDS011;32057;47.830;19.046;2022-07-24T12:57:16;1.73;;;1.38;;
46348;SDS011;32057;47.830;19.046;2022-07-24T12:59:45;1.92;;;1.52;;
46348;SDS011;32057;47.830;19.046;2022-07-24T13:02:14;1.70;;;1.60;;
46348;SDS011;32057;47.830;19.046;2022-07-24T13:04:42;1.60;;;1.50;;
46348;SDS011;32057;47.830;19.046;2022-07-24T13:07:09;1.33;;;1.23;;
46348;SDS011;32057;47.830;19.046;2022-07-24T13:09:35;2.25;;;1.40;;
46348;SDS011;32057;47.830;19.046;2022-07-24T13:12:01;1.38;;;1.38;;
46348;SDS011;32057;47.830;19.046;2022-07-24T13:14:27;1.10;;;1.02;;
46348;SDS011;32057;47.830;19.046;2022-07-24T13:17:00;1.20;;;1.10;;
46348;SDS011;32057;47.830;19.046;2022-07-24T13:19:27;1.58;;;1.40;;
46348;SDS011;32057;47.830;19.046;2022-07-24T13:21:53;1.02;;;0.93;;
46348;SDS011;32057;47.830;19.046;2022-07-24T13:24:18;1.52;;;1.40;;
46348;SDS011;32057;47.830;19.046;2022-07-24T13:26:44;1.90;;;1.30;;
46348;SDS011;32057;47.830;19.046;2022-07-24T13:29:10;1.83;;;1.40;;
46348;SDS011;32057;47.830;19.046;2022-07-24T13:31:36;1.50;;;1.40;;
46348;SDS011;32057;47.830;19.046;2022-07-24T13:34:03;1.40;;;1.30;;
46348;SDS011;32057;47.830;19.046;2022-07-24T13:36:29;1.58;;;1.48;;
46348;SDS011;32057;47.830;19.046;2022-07-24T13:38:56;1.13;;;1.02;;
46348;SDS011;32057;47.830;19.046;2022-07-24T13:41:22;2.35;;;1.15;;
46348;SDS011;32057;47.830;19.046;2022-07-24T13:43:48;1.52;;;1.42;;
46348;SDS011;32057;47.830;19.046;2022-07-24T13:46:14;1.25;;;1.15;;
46348;SDS011;32057;47.830;19.046;2022-07-24T13:48:40;1.20;;;1.20;;
46348;SDS011;32057;47.830;19.046;2022-07-24T13:51:06;1.23;;;1.13;;
46348;SDS011;32057;47.830;19.046;2022-07-24T13:53:31;1.67;;;1.20;;
46348;SDS011;32057;47.830;19.046;2022-07-24T13:55:57;1.35;;;1.25;;
46348;SDS011;32057;47.830;19.046;2022-07-24T13:58:23;1.20;;;1.10;;
46348;SDS011;32057;47.830;19.046;2022-07-24T14:00:48;0.90;;;0.90;;
46348;SDS011;32057;47.830;19.046;2022-07-24T14:03:14;1.23;;;1.13;;
46348;SDS011;32057;47.830;19.046;2022-07-24T14:05:40;1.52;;;1.40;;
46348;SDS011;32057;47.830;19.046;2022-07-24T14:08:06;1.00;;;1.00;;
46348;SDS011;32057;47.830;19.046;2022-07-24T14:10:31;1.40;;;1.30;;
46348;SDS011;32057;47.830;19.046;2022-07-24T14:12:57;1.02;;;0.98;;
46348;SDS011;32057;47.830;19.046;2022-07-24T14:15:22;4.13;;;1.27;;
46348;SDS011;32057;47.830;19.046;2022-07-24T14:17:48;1.30;;;1.20;;
46348;SDS011;32057;47.830;19.046;2022-07-24T14:20:13;1.10;;;1.10;;
46348;SDS011;32057;47.830;19.046;2022-07-24T14:22:40;0.80;;;0.80;;
46348;SDS011;32057;47.830;19.046;2022-07-24T14:25:06;0.80;;;0.80;;
46348;SDS011;32057;47.830;19.046;2022-07-24T14:27:33;0.95;;;0.95;;
46348;SDS011;32057;47.830;19.046;2022-07-24T14:29:58;1.17;;;1.10;;
46348;SDS011;32057;47.830;19.046;2022-07-24T14:32:25;0.90;;;0.90;;
46348;SDS011;32057;47.830;19.046;2022-07-24T14:34:50;1.48;;;1.25;;
46348;SDS011;32057;47.830;19.046;2022-07-24T14:37:16;1.17;;;1.05;;
46348;SDS011;32057;47.830;19.046;2022-07-24T14:39:41;2.03;;;1.20;;
46348;SDS011;32057;47.830;19.046;2022-07-24T14:42:07;0.80;;;0.80;;
46348;SDS011;32057;47.830;19.046;2022-07-24T14:44:33;0.82;;;0.82;;
46348;SDS011;32057;47.830;19.046;2022-07-24T14:46:58;0.90;;;0.90;;
46348;SDS011;32057;47.830;19.046;2022-07-24T14:49:26;1.10;;;1.08;;
46348;SDS011;32057;47.830;19.046;2022-07-24T14:51:52;1.90;;;1.40;;
46348;SDS011;32057;47.830;19.046;2022-07-24T14:54:17;1.15;;;1.00;;
46348;SDS011;32057;47.830;19.046;2022-07-24T14:56:43;1.17;;;1.08;;
46348;SDS011;32057;47.830;19.046;2022-07-24T14:59:08;1.23;;;1.05;;
46348;SDS011;32057;47.830;19.046;2022-07-24T15:01:34;1.63;;;1.45;;
46348;SDS011;32057;47.830;19.046;2022-07-24T15:04:00;1.45;;;1.02;;
46348;SDS011;32057;47.830;19.046;2022-07-24T15:06:26;1.02;;;0.90;;
46348;SDS011;32057;47.830;19.046;2022-07-24T15:08:53;1.20;;;1.10;;
46348;SDS011;32057;47.830;19.046;2022-07-24T15:11:19;0.98;;;0.88;;
46348;SDS011;32057;47.830;19.046;2022-07-24T15:13:47;0.70;;;0.70;;
46348;SDS011;32057;47.830;19.046;2022-07-24T15:16:13;1.35;;;1.25;;
46348;SDS011;32057;47.830;19.046;2022-07-24T15:18:39;1.00;;;0.90;;